sensor_id;sensor_type;location;lat;lon;timestamp;pressure;altitude;pressure_sealevel;temperature
68911;BMP180;55953;51.650;-0.522;2023-03-14T00:01:18;97791.60;;;10.40
68911;BMP180;55953;51.650;-0.522;2023-03-14T00:03:48;97784.80;;;10.40
68911;BMP180;55953;51.650;-0.522;2023-03-14T00:06:17;97780.20;;;10.40
68911;BMP180;55953;51.650;-0.522;2023-03-14T00:08:46;97781.80;;;10.40
68911;BMP180;55953;51.650;-0.522;2023-03-14T00:11:20;97784.40;;;10.40
68911;BMP180;55953;51.650;-0.522;2023-03-14T00:13:51;97783.20;;;10.40
68911;BMP180;55953;51.650;-0.522;2023-03-14T00:16:20;97791.60;;;10.40
68911;BMP180;55953;51.650;-0.522;2023-03-14T00:18:48;97792.60;;;10.40
68911;BMP180;55953;51.650;-0.522;2023-03-14T00:21:18;97792.60;;;10.40
68911;BMP180;55953;51.650;-0.522;2023-03-14T00:23:47;97792.60;;;10.40
68911;BMP180;55953;51.650;-0.522;2023-03-14T00:26:18;97799.40;;;10.40
68911;BMP180;55953;51.650;-0.522;2023-03-14T00:28:47;97789.20;;;10.40
68911;BMP180;55953;51.650;-0.522;2023-03-14T00:31:18;97841.20;;;10.40
68911;BMP180;55953;51.650;-0.522;2023-03-14T00:33:45;97870.40;;;10.02
68911;BMP180;55953;51.650;-0.522;2023-03-14T00:36:16;97907.60;;;9.40
68911;BMP180;55953;51.650;-0.522;2023-03-14T00:38:48;97927.40;;;9.08
68911;BMP180;55953;51.650;-0.522;2023-03-14T00:41:20;97931.20;;;8.80
68911;BMP180;55953;51.650;-0.522;2023-03-14T00:43:51;97932.80;;;8.60
68911;BMP180;55953;51.650;-0.522;2023-03-14T00:46:20;97939.60;;;8.54
68911;BMP180;55953;51.650;-0.522;2023-03-14T00:48:48;97944.20;;;8.42
68911;BMP180;55953;51.650;-0.522;2023-03-14T00:51:16;97957.20;;;8.40
68911;BMP180;55953;51.650;-0.522;2023-03-14T00:53:44;97971.80;;;8.32
68911;BMP180;55953;51.650;-0.522;2023-03-14T00:56:13;97970.80;;;8.30
68911;BMP180;55953;51.650;-0.522;2023-03-14T00:58:42;97981.60;;;8.30
68911;BMP180;55953;51.650;-0.522;2023-03-14T01:01:17;97999.80;;;8.14
68911;BMP180;55953;51.650;-0.522;2023-03-14T01:03:47;97998.80;;;7.90
68911;BMP180;55953;51.650;-0.522;2023-03-14T01:06:27;98013.40;;;7.80
68911;BMP180;55953;51.650;-0.522;2023-03-14T01:08:57;98022.80;;;7.80
68911;BMP180;55953;51.650;-0.522;2023-03-14T01:11:30;98027.60;;;7.70
68911;BMP180;55953;51.650;-0.522;2023-03-14T01:13:59;98025.20;;;7.70
68911;BMP180;55953;51.650;-0.522;2023-03-14T01:16:32;98037.40;;;7.60
68911;BMP180;55953;51.650;-0.522;2023-03-14T01:19:02;98041.20;;;7.60
68911;BMP180;55953;51.650;-0.522;2023-03-14T01:21:34;98047.40;;;7.58
68911;BMP180;55953;51.650;-0.522;2023-03-14T01:24:05;98051.40;;;7.58
68911;BMP180;55953;51.650;-0.522;2023-03-14T01:26:35;98053.60;;;7.52
68911;BMP180;55953;51.650;-0.522;2023-03-14T01:29:04;98063.80;;;7.50
68911;BMP180;55953;51.650;-0.522;2023-03-14T01:31:33;98065.60;;;7.50
68911;BMP180;55953;51.650;-0.522;2023-03-14T01:34:01;98073.40;;;7.48
68911;BMP180;55953;51.650;-0.522;2023-03-14T01:36:29;98085.80;;;7.50
68911;BMP180;55953;51.650;-0.522;2023-03-14T01:38:59;98079.40;;;7.40
68911;BMP180;55953;51.650;-0.522;2023-03-14T01:41:28;98087.20;;;7.40
68911;BMP180;55953;51.650;-0.522;2023-03-14T01:43:58;98093.80;;;7.40
68911;BMP180;55953;51.650;-0.522;2023-03-14T01:46:34;98102.00;;;7.40
68911;BMP180;55953;51.650;-0.522;2023-03-14T01:49:27;98107.00;;;7.40
68911;BMP180;55953;51.650;-0.522;2023-03-14T01:52:13;98124.60;;;7.40
68911;BMP180;55953;51.650;-0.522;2023-03-14T01:54:51;98132.80;;;7.32
68911;BMP180;55953;51.650;-0.522;2023-03-14T01:57:37;98145.20;;;7.30
68911;BMP180;55953;51.650;-0.522;2023-03-14T02:00:23;98154.40;;;7.30
68911;BMP180;55953;51.650;-0.522;2023-03-14T02:02:56;98162.40;;;7.20
68911;BMP180;55953;51.650;-0.522;2023-03-14T02:05:31;98165.40;;;7.10
68911;BMP180;55953;51.650;-0.522;2023-03-14T02:08:11;98172.80;;;6.98
68911;BMP180;55953;51.650;-0.522;2023-03-14T02:10:48;98181.20;;;6.80
68911;BMP180;55953;51.650;-0.522;2023-03-14T02:13:21;98181.40;;;6.76
68911;BMP180;55953;51.650;-0.522;2023-03-14T02:16:08;98205.00;;;6.62
68911;BMP180;55953;51.650;-0.522;2023-03-14T02:18:59;98206.80;;;6.50
68911;BMP180;55953;51.650;-0.522;2023-03-14T02:21:42;98214.60;;;6.40
68911;BMP180;55953;51.650;-0.522;2023-03-14T02:24:38;98219.60;;;6.30
68911;BMP180;55953;51.650;-0.522;2023-03-14T02:27:15;98223.60;;;6.20
68911;BMP180;55953;51.650;-0.522;2023-03-14T02:29:57;98229.00;;;6.20
68911;BMP180;55953;51.650;-0.522;2023-03-14T02:32:31;98235.60;;;6.10
68911;BMP180;55953;51.650;-0.522;2023-03-14T02:35:06;98241.00;;;6.06
68911;BMP180;55953;51.650;-0.522;2023-03-14T02:37:47;98238.20;;;6.00
68911;BMP180;55953;51.650;-0.522;2023-03-14T02:40:17;98250.20;;;6.00
68911;BMP180;55953;51.650;-0.522;2023-03-14T02:42:46;98257.40;;;5.92
68911;BMP180;55953;51.650;-0.522;2023-03-14T02:47:46;98274.40;;;5.90
68911;BMP180;55953;51.650;-0.522;2023-03-14T02:50:21;98272.00;;;5.80
68911;BMP180;55953;51.650;-0.522;2023-03-14T02:52:50;98281.00;;;5.80
68911;BMP180;55953;51.650;-0.522;2023-03-14T02:55:23;98289.20;;;5.80
68911;BMP180;55953;51.650;-0.522;2023-03-14T02:57:52;98291.20;;;5.76
68911;BMP180;55953;51.650;-0.522;2023-03-14T03:00:21;98299.20;;;5.70
68911;BMP180;55953;51.650;-0.522;2023-03-14T03:02:49;98297.80;;;5.70
68911;BMP180;55953;51.650;-0.522;2023-03-14T03:05:17;98304.60;;;5.70
68911;BMP180;55953;51.650;-0.522;2023-03-14T03:07:45;98314.80;;;5.62
68911;BMP180;55953;51.650;-0.522;2023-03-14T03:10:13;98326.80;;;5.60
68911;BMP180;55953;51.650;-0.522;2023-03-14T03:12:41;98327.20;;;5.56
68911;BMP180;55953;51.650;-0.522;2023-03-14T03:15:09;98341.60;;;5.50
68911;BMP180;55953;51.650;-0.522;2023-03-14T03:17:37;98347.00;;;5.52
68911;BMP180;55953;51.650;-0.522;2023-03-14T03:20:06;98352.60;;;5.50
68911;BMP180;55953;51.650;-0.522;2023-03-14T03:22:37;98361.00;;;5.50
68911;BMP180;55953;51.650;-0.522;2023-03-14T03:25:07;98371.00;;;5.50
68911;BMP180;55953;51.650;-0.522;2023-03-14T03:27:37;98368.40;;;5.50
68911;BMP180;55953;51.650;-0.522;2023-03-14T03:30:06;98376.40;;;5.50
68911;BMP180;55953;51.650;-0.522;2023-03-14T03:32:35;98373.20;;;5.46
68911;BMP180;55953;51.650;-0.522;2023-03-14T03:35:04;98388.40;;;5.40
68911;BMP180;55953;51.650;-0.522;2023-03-14T03:37:35;98403.60;;;5.40
68911;BMP180;55953;51.650;-0.522;2023-03-14T03:40:05;98402.40;;;5.40
68911;BMP180;55953;51.650;-0.522;2023-03-14T03:42:34;98410.40;;;5.38
68911;BMP180;55953;51.650;-0.522;2023-03-14T03:45:03;98415.40;;;5.30
68911;BMP180;55953;51.650;-0.522;2023-03-14T03:47:32;98418.40;;;5.30
68911;BMP180;55953;51.650;-0.522;2023-03-14T03:50:03;98424.80;;;5.24
68911;BMP180;55953;51.650;-0.522;2023-03-14T03:52:32;98441.00;;;5.20
68911;BMP180;55953;51.650;-0.522;2023-03-14T03:55:00;98436.20;;;5.20
68911;BMP180;55953;51.650;-0.522;2023-03-14T03:57:28;98434.60;;;5.20
68911;BMP180;55953;51.650;-0.522;2023-03-14T03:59:56;98440.40;;;5.10
68911;BMP180;55953;51.650;-0.522;2023-03-14T04:02:24;98442.80;;;5.10
68911;BMP180;55953;51.650;-0.522;2023-03-14T04:04:52;98455.20;;;5.08
68911;BMP180;55953;51.650;-0.522;2023-03-14T04:07:20;98459.00;;;5.00
68911;BMP180;55953;51.650;-0.522;2023-03-14T04:09:49;98469.40;;;5.00
68911;BMP180;55953;51.650;-0.522;2023-03-14T04:12:33;98471.80;;;5.00
68911;BMP180;55953;51.650;-0.522;2023-03-14T04:15:18;98472.80;;;5.00
68911;BMP180;55953;51.650;-0.522;2023-03-14T04:17:50;98477.00;;;4.90
68911;BMP180;55953;51.650;-0.522;2023-03-14T04:20:18;98481.20;;;4.96
68911;BMP180;55953;51.650;-0.522;2023-03-14T04:22:45;98497.20;;;4.90
68911;BMP180;55953;51.650;-0.522;2023-03-14T04:25:13;98499.80;;;4.90
68911;BMP180;55953;51.650;-0.522;2023-03-14T04:27:47;98514.80;;;4.90
68911;BMP180;55953;51.650;-0.522;2023-03-14T04:30:24;98527.00;;;4.90
68911;BMP180;55953;51.650;-0.522;2023-03-14T04:33:14;98535.60;;;4.90
68911;BMP180;55953;51.650;-0.522;2023-03-14T04:35:54;98537.20;;;4.90
68911;BMP180;55953;51.650;-0.522;2023-03-14T04:38:22;98547.60;;;4.90
68911;BMP180;55953;51.650;-0.522;2023-03-14T04:40:51;98548.40;;;4.90
68911;BMP180;55953;51.650;-0.522;2023-03-14T04:43:22;98550.60;;;4.90
68911;BMP180;55953;51.650;-0.522;2023-03-14T04:45:54;98559.60;;;4.90
68911;BMP180;55953;51.650;-0.522;2023-03-14T04:48:23;98564.40;;;4.90
68911;BMP180;55953;51.650;-0.522;2023-03-14T04:50:52;98565.20;;;4.90
68911;BMP180;55953;51.650;-0.522;2023-03-14T04:53:21;98578.20;;;4.86
68911;BMP180;55953;51.650;-0.522;2023-03-14T04:55:54;98581.80;;;4.90
68911;BMP180;55953;51.650;-0.522;2023-03-14T04:58:23;98589.60;;;4.90
68911;BMP180;55953;51.650;-0.522;2023-03-14T05:00:53;98593.40;;;4.90
68911;BMP180;55953;51.650;-0.522;2023-03-14T05:03:37;98599.20;;;4.90
68911;BMP180;55953;51.650;-0.522;2023-03-14T05:06:25;98605.20;;;4.88
68911;BMP180;55953;51.650;-0.522;2023-03-14T05:09:02;98604.00;;;4.80
68911;BMP180;55953;51.650;-0.522;2023-03-14T05:12:05;98608.80;;;4.80
68911;BMP180;55953;51.650;-0.522;2023-03-14T05:15:12;98621.40;;;4.78
68911;BMP180;55953;51.650;-0.522;2023-03-14T05:18:04;98622.40;;;4.78
68911;BMP180;55953;51.650;-0.522;2023-03-14T05:20:51;98618.60;;;4.70
68911;BMP180;55953;51.650;-0.522;2023-03-14T05:23:38;98627.60;;;4.70
68911;BMP180;55953;51.650;-0.522;2023-03-14T05:26:29;98632.00;;;4.70
68911;BMP180;55953;51.650;-0.522;2023-03-14T05:29:03;98633.40;;;4.70
68911;BMP180;55953;51.650;-0.522;2023-03-14T05:31:46;98648.20;;;4.70
68911;BMP180;55953;51.650;-0.522;2023-03-14T05:34:26;98646.40;;;4.70
68911;BMP180;55953;51.650;-0.522;2023-03-14T05:37:10;98657.40;;;4.80
68911;BMP180;55953;51.650;-0.522;2023-03-14T05:40:11;98666.60;;;4.80
68911;BMP180;55953;51.650;-0.522;2023-03-14T05:42:58;98675.00;;;4.88
68911;BMP180;55953;51.650;-0.522;2023-03-14T05:45:35;98675.40;;;4.92
68911;BMP180;55953;51.650;-0.522;2023-03-14T05:48:10;98680.80;;;5.00
68911;BMP180;55953;51.650;-0.522;2023-03-14T05:51:13;98685.60;;;5.08
68911;BMP180;55953;51.650;-0.522;2023-03-14T05:54:10;98697.60;;;5.10
68911;BMP180;55953;51.650;-0.522;2023-03-14T05:56:54;98706.60;;;5.10
68911;BMP180;55953;51.650;-0.522;2023-03-14T05:59:37;98713.00;;;5.10
68911;BMP180;55953;51.650;-0.522;2023-03-14T06:02:12;98730.20;;;5.20
68911;BMP180;55953;51.650;-0.522;2023-03-14T06:04:47;98728.40;;;5.20
68911;BMP180;55953;51.650;-0.522;2023-03-14T06:07:15;98737.20;;;5.20
68911;BMP180;55953;51.650;-0.522;2023-03-14T06:09:44;98740.60;;;5.30
68911;BMP180;55953;51.650;-0.522;2023-03-14T06:12:12;98753.60;;;5.30
68911;BMP180;55953;51.650;-0.522;2023-03-14T06:14:42;98761.00;;;5.40
68911;BMP180;55953;51.650;-0.522;2023-03-14T06:17:11;98761.60;;;5.40
68911;BMP180;55953;51.650;-0.522;2023-03-14T06:19:45;98758.00;;;5.46
68911;BMP180;55953;51.650;-0.522;2023-03-14T06:22:13;98771.60;;;5.50
68911;BMP180;55953;51.650;-0.522;2023-03-14T06:24:42;98778.80;;;5.50
68911;BMP180;55953;51.650;-0.522;2023-03-14T06:27:10;98787.60;;;5.50
68911;BMP180;55953;51.650;-0.522;2023-03-14T06:29:38;98797.60;;;5.50
68911;BMP180;55953;51.650;-0.522;2023-03-14T06:32:06;98807.60;;;5.50
68911;BMP180;55953;51.650;-0.522;2023-03-14T06:34:34;98818.00;;;5.50
68911;BMP180;55953;51.650;-0.522;2023-03-14T06:37:02;98829.00;;;5.50
68911;BMP180;55953;51.650;-0.522;2023-03-14T06:39:30;98829.80;;;5.50
68911;BMP180;55953;51.650;-0.522;2023-03-14T06:42:04;98834.20;;;5.60
68911;BMP180;55953;51.650;-0.522;2023-03-14T06:44:33;98837.00;;;5.60
68911;BMP180;55953;51.650;-0.522;2023-03-14T06:47:01;98857.80;;;5.60
68911;BMP180;55953;51.650;-0.522;2023-03-14T06:49:29;98854.20;;;5.52
68911;BMP180;55953;51.650;-0.522;2023-03-14T06:51:58;98864.20;;;5.50
68911;BMP180;55953;51.650;-0.522;2023-03-14T06:54:25;98871.00;;;5.50
68911;BMP180;55953;51.650;-0.522;2023-03-14T06:56:53;98879.40;;;5.40
68911;BMP180;55953;51.650;-0.522;2023-03-14T06:59:21;98897.80;;;5.30
68911;BMP180;55953;51.650;-0.522;2023-03-14T07:01:49;98904.20;;;5.20
68911;BMP180;55953;51.650;-0.522;2023-03-14T07:04:18;98915.00;;;5.20
68911;BMP180;55953;51.650;-0.522;2023-03-14T07:06:48;98927.00;;;5.20
68911;BMP180;55953;51.650;-0.522;2023-03-14T07:09:16;98934.60;;;5.18
68911;BMP180;55953;51.650;-0.522;2023-03-14T07:11:51;98942.20;;;5.20
68911;BMP180;55953;51.650;-0.522;2023-03-14T07:14:19;98955.40;;;5.10
68911;BMP180;55953;51.650;-0.522;2023-03-14T07:16:49;98969.80;;;5.10
68911;BMP180;55953;51.650;-0.522;2023-03-14T07:19:17;98988.40;;;5.00
68911;BMP180;55953;51.650;-0.522;2023-03-14T07:21:45;99003.00;;;4.90
68911;BMP180;55953;51.650;-0.522;2023-03-14T07:24:14;99007.40;;;4.80
68911;BMP180;55953;51.650;-0.522;2023-03-14T07:26:42;99018.20;;;4.70
68911;BMP180;55953;51.650;-0.522;2023-03-14T07:29:10;99014.80;;;4.70
68911;BMP180;55953;51.650;-0.522;2023-03-14T07:31:39;99035.60;;;4.60
68911;BMP180;55953;51.650;-0.522;2023-03-14T07:34:07;99042.40;;;4.60
68911;BMP180;55953;51.650;-0.522;2023-03-14T07:36:37;99049.80;;;4.60
68911;BMP180;55953;51.650;-0.522;2023-03-14T07:39:05;99063.60;;;4.70
68911;BMP180;55953;51.650;-0.522;2023-03-14T07:41:51;99074.20;;;4.70
68911;BMP180;55953;51.650;-0.522;2023-03-14T07:44:42;99083.80;;;4.74
68911;BMP180;55953;51.650;-0.522;2023-03-14T07:47:10;99092.40;;;4.70
68911;BMP180;55953;51.650;-0.522;2023-03-14T07:49:39;99096.60;;;4.70
68911;BMP180;55953;51.650;-0.522;2023-03-14T07:52:06;99101.40;;;4.60
68911;BMP180;55953;51.650;-0.522;2023-03-14T07:54:34;99110.80;;;4.70
68911;BMP180;55953;51.650;-0.522;2023-03-14T07:57:02;99123.80;;;4.70
68911;BMP180;55953;51.650;-0.522;2023-03-14T07:59:31;99130.20;;;4.76
68911;BMP180;55953;51.650;-0.522;2023-03-14T08:01:59;99142.20;;;4.70
68911;BMP180;55953;51.650;-0.522;2023-03-14T08:04:27;99149.40;;;4.80
68911;BMP180;55953;51.650;-0.522;2023-03-14T08:06:54;99154.20;;;4.80
68911;BMP180;55953;51.650;-0.522;2023-03-14T08:09:22;99164.20;;;4.84
68911;BMP180;55953;51.650;-0.522;2023-03-14T08:11:50;99178.00;;;4.80
68911;BMP180;55953;51.650;-0.522;2023-03-14T08:14:18;99189.60;;;4.80
68911;BMP180;55953;51.650;-0.522;2023-03-14T08:16:46;99202.20;;;4.70
68911;BMP180;55953;51.650;-0.522;2023-03-14T08:19:14;99206.80;;;4.60
68911;BMP180;55953;51.650;-0.522;2023-03-14T08:21:41;99221.40;;;4.52
68911;BMP180;55953;51.650;-0.522;2023-03-14T08:24:09;99232.20;;;4.50
68911;BMP180;55953;51.650;-0.522;2023-03-14T08:26:37;99243.00;;;4.60
68911;BMP180;55953;51.650;-0.522;2023-03-14T08:29:05;99259.00;;;4.60
68911;BMP180;55953;51.650;-0.522;2023-03-14T08:31:35;99268.80;;;4.60
68911;BMP180;55953;51.650;-0.522;2023-03-14T08:34:03;99276.40;;;4.70
68911;BMP180;55953;51.650;-0.522;2023-03-14T08:36:31;99287.80;;;4.84
68911;BMP180;55953;51.650;-0.522;2023-03-14T08:38:59;99293.20;;;4.84
68911;BMP180;55953;51.650;-0.522;2023-03-14T08:41:27;99308.80;;;4.90
68911;BMP180;55953;51.650;-0.522;2023-03-14T08:43:55;99318.60;;;4.84
68911;BMP180;55953;51.650;-0.522;2023-03-14T08:46:23;99337.00;;;4.70
68911;BMP180;55953;51.650;-0.522;2023-03-14T08:48:51;99345.00;;;4.50
68911;BMP180;55953;51.650;-0.522;2023-03-14T08:51:18;99357.60;;;4.50
68911;BMP180;55953;51.650;-0.522;2023-03-14T08:53:47;99369.20;;;4.40
68911;BMP180;55953;51.650;-0.522;2023-03-14T08:56:15;99374.00;;;4.30
68911;BMP180;55953;51.650;-0.522;2023-03-14T08:58:43;99390.00;;;4.20
68911;BMP180;55953;51.650;-0.522;2023-03-14T09:01:11;99396.00;;;4.30
68911;BMP180;55953;51.650;-0.522;2023-03-14T09:03:39;99405.00;;;4.40
68911;BMP180;55953;51.650;-0.522;2023-03-14T09:06:09;99408.80;;;4.40
68911;BMP180;55953;51.650;-0.522;2023-03-14T09:08:37;99409.60;;;4.40
68911;BMP180;55953;51.650;-0.522;2023-03-14T09:11:08;99420.80;;;4.60
68911;BMP180;55953;51.650;-0.522;2023-03-14T09:13:36;99419.80;;;4.68
68911;BMP180;55953;51.650;-0.522;2023-03-14T09:16:06;99424.20;;;4.80
68911;BMP180;55953;51.650;-0.522;2023-03-14T09:18:34;99427.40;;;5.00
68911;BMP180;55953;51.650;-0.522;2023-03-14T09:21:03;99438.60;;;5.04
68911;BMP180;55953;51.650;-0.522;2023-03-14T09:23:31;99448.20;;;5.10
68911;BMP180;55953;51.650;-0.522;2023-03-14T09:26:00;99462.60;;;5.28
68911;BMP180;55953;51.650;-0.522;2023-03-14T09:28:28;99459.80;;;5.30
68911;BMP180;55953;51.650;-0.522;2023-03-14T09:30:55;99466.60;;;5.30
68911;BMP180;55953;51.650;-0.522;2023-03-14T09:33:23;99482.00;;;5.30
68911;BMP180;55953;51.650;-0.522;2023-03-14T09:35:51;99485.60;;;5.36
68911;BMP180;55953;51.650;-0.522;2023-03-14T09:38:19;99494.60;;;5.50
68911;BMP180;55953;51.650;-0.522;2023-03-14T09:40:48;99503.60;;;5.60
68911;BMP180;55953;51.650;-0.522;2023-03-14T09:43:17;99504.00;;;5.70
68911;BMP180;55953;51.650;-0.522;2023-03-14T09:45:47;99507.00;;;5.90
68911;BMP180;55953;51.650;-0.522;2023-03-14T09:48:21;99509.20;;;6.10
68911;BMP180;55953;51.650;-0.522;2023-03-14T09:50:53;99516.00;;;6.10
68911;BMP180;55953;51.650;-0.522;2023-03-14T09:53:27;99520.20;;;5.92
68911;BMP180;55953;51.650;-0.522;2023-03-14T09:55:58;99535.40;;;5.84
68911;BMP180;55953;51.650;-0.522;2023-03-14T09:58:26;99547.40;;;5.78
68911;BMP180;55953;51.650;-0.522;2023-03-14T10:00:56;99552.40;;;5.62
68911;BMP180;55953;51.650;-0.522;2023-03-14T10:03:29;99569.60;;;5.66
68911;BMP180;55953;51.650;-0.522;2023-03-14T10:05:59;99574.20;;;5.72
68911;BMP180;55953;51.650;-0.522;2023-03-14T10:08:27;99588.80;;;5.90
68911;BMP180;55953;51.650;-0.522;2023-03-14T10:10:55;99593.80;;;6.00
68911;BMP180;55953;51.650;-0.522;2023-03-14T10:13:26;99599.20;;;5.90
68911;BMP180;55953;51.650;-0.522;2023-03-14T10:16:03;99605.80;;;5.80
68911;BMP180;55953;51.650;-0.522;2023-03-14T10:18:32;99613.40;;;5.90
68911;BMP180;55953;51.650;-0.522;2023-03-14T10:21:07;99622.60;;;5.90
68911;BMP180;55953;51.650;-0.522;2023-03-14T10:23:45;99629.00;;;6.00
68911;BMP180;55953;51.650;-0.522;2023-03-14T10:26:27;99637.40;;;6.30
68911;BMP180;55953;51.650;-0.522;2023-03-14T10:29:24;99637.80;;;6.52
68911;BMP180;55953;51.650;-0.522;2023-03-14T10:32:00;99642.00;;;6.90
68911;BMP180;55953;51.650;-0.522;2023-03-14T10:34:35;99647.00;;;6.90
68911;BMP180;55953;51.650;-0.522;2023-03-14T10:37:16;99652.40;;;7.00
68911;BMP180;55953;51.650;-0.522;2023-03-14T10:39:49;99652.40;;;7.32
68911;BMP180;55953;51.650;-0.522;2023-03-14T10:42:30;99667.40;;;7.40
68911;BMP180;55953;51.650;-0.522;2023-03-14T10:45:06;99662.60;;;7.40
68911;BMP180;55953;51.650;-0.522;2023-03-14T10:47:51;99670.60;;;7.40
68911;BMP180;55953;51.650;-0.522;2023-03-14T10:50:31;99677.40;;;7.60
68911;BMP180;55953;51.650;-0.522;2023-03-14T10:53:02;99677.00;;;7.56
68911;BMP180;55953;51.650;-0.522;2023-03-14T10:55:43;99688.20;;;7.50
68911;BMP180;55953;51.650;-0.522;2023-03-14T10:58:22;99698.40;;;7.60
68911;BMP180;55953;51.650;-0.522;2023-03-14T11:01:27;99695.60;;;7.50
68911;BMP180;55953;51.650;-0.522;2023-03-14T11:07:33;99715.80;;;7.30
68911;BMP180;55953;51.650;-0.522;2023-03-14T11:10:38;99714.00;;;7.30
68911;BMP180;55953;51.650;-0.522;2023-03-14T11:19:43;99740.60;;;7.80
68911;BMP180;55953;51.650;-0.522;2023-03-14T11:25:26;99754.40;;;7.88
68911;BMP180;55953;51.650;-0.522;2023-03-14T11:28:14;99757.00;;;7.86
68911;BMP180;55953;51.650;-0.522;2023-03-14T11:31:01;99762.80;;;7.96
68911;BMP180;55953;51.650;-0.522;2023-03-14T11:36:37;99782.80;;;8.10
68911;BMP180;55953;51.650;-0.522;2023-03-14T11:39:19;99785.60;;;8.20
68911;BMP180;55953;51.650;-0.522;2023-03-14T11:41:57;99793.40;;;8.10
68911;BMP180;55953;51.650;-0.522;2023-03-14T11:44:33;99799.80;;;8.20
68911;BMP180;55953;51.650;-0.522;2023-03-14T11:47:41;99797.00;;;8.32
68911;BMP180;55953;51.650;-0.522;2023-03-14T11:50:22;99803.80;;;8.40
68911;BMP180;55953;51.650;-0.522;2023-03-14T11:53:03;99816.00;;;8.56
68911;BMP180;55953;51.650;-0.522;2023-03-14T11:55:35;99822.20;;;8.44
68911;BMP180;55953;51.650;-0.522;2023-03-14T11:58:19;99828.40;;;8.32
68911;BMP180;55953;51.650;-0.522;2023-03-14T12:00:51;99819.80;;;8.22
68911;BMP180;55953;51.650;-0.522;2023-03-14T12:03:35;99824.80;;;8.40
68911;BMP180;55953;51.650;-0.522;2023-03-14T12:06:21;99831.20;;;8.48
68911;BMP180;55953;51.650;-0.522;2023-03-14T12:08:53;99829.80;;;8.50
68911;BMP180;55953;51.650;-0.522;2023-03-14T12:14:33;99839.80;;;8.48
68911;BMP180;55953;51.650;-0.522;2023-03-14T12:17:39;99832.60;;;8.70
68911;BMP180;55953;51.650;-0.522;2023-03-14T12:20:19;99834.60;;;8.90
68911;BMP180;55953;51.650;-0.522;2023-03-14T12:23:10;99836.80;;;9.20
68911;BMP180;55953;51.650;-0.522;2023-03-14T12:25:39;99835.20;;;9.20
68911;BMP180;55953;51.650;-0.522;2023-03-14T12:28:20;99839.80;;;9.50
68911;BMP180;55953;51.650;-0.522;2023-03-14T12:30:48;99835.80;;;9.80
68911;BMP180;55953;51.650;-0.522;2023-03-14T12:35:46;99841.80;;;9.90
68911;BMP180;55953;51.650;-0.522;2023-03-14T12:41:41;99847.60;;;9.86
68911;BMP180;55953;51.650;-0.522;2023-03-14T12:47:00;99849.80;;;9.50
68911;BMP180;55953;51.650;-0.522;2023-03-14T12:49:42;99855.20;;;9.60
68911;BMP180;55953;51.650;-0.522;2023-03-14T12:52:22;99859.20;;;9.60
68911;BMP180;55953;51.650;-0.522;2023-03-14T12:55:08;99849.80;;;9.62
68911;BMP180;55953;51.650;-0.522;2023-03-14T12:57:48;99862.00;;;9.54
68911;BMP180;55953;51.650;-0.522;2023-03-14T13:00:30;99866.40;;;9.30
68911;BMP180;55953;51.650;-0.522;2023-03-14T13:03:18;99870.60;;;9.10
68911;BMP180;55953;51.650;-0.522;2023-03-14T13:05:59;99871.60;;;9.02
68911;BMP180;55953;51.650;-0.522;2023-03-14T13:08:45;99876.00;;;8.90
68911;BMP180;55953;51.650;-0.522;2023-03-14T13:11:18;99875.80;;;9.00
68911;BMP180;55953;51.650;-0.522;2023-03-14T13:13:52;99877.80;;;9.10
68911;BMP180;55953;51.650;-0.522;2023-03-14T13:16:23;99880.60;;;9.00
68911;BMP180;55953;51.650;-0.522;2023-03-14T13:19:03;99890.40;;;9.10
68911;BMP180;55953;51.650;-0.522;2023-03-14T13:21:37;99885.60;;;9.20
68911;BMP180;55953;51.650;-0.522;2023-03-14T13:24:24;99884.80;;;9.30
68911;BMP180;55953;51.650;-0.522;2023-03-14T13:26:55;99886.80;;;9.50
68911;BMP180;55953;51.650;-0.522;2023-03-14T13:29:25;99899.20;;;9.60
68911;BMP180;55953;51.650;-0.522;2023-03-14T13:32:00;99894.00;;;9.74
68911;BMP180;55953;51.650;-0.522;2023-03-14T13:34:34;99894.80;;;9.90
68911;BMP180;55953;51.650;-0.522;2023-03-14T13:37:02;99904.00;;;9.74
68911;BMP180;55953;51.650;-0.522;2023-03-14T13:39:30;99908.60;;;9.74
68911;BMP180;55953;51.650;-0.522;2023-03-14T13:42:01;99910.00;;;9.90
68911;BMP180;55953;51.650;-0.522;2023-03-14T13:44:33;99906.60;;;10.00
68911;BMP180;55953;51.650;-0.522;2023-03-14T13:47:05;99910.20;;;10.00
68911;BMP180;55953;51.650;-0.522;2023-03-14T13:49:37;99921.20;;;10.00
68911;BMP180;55953;51.650;-0.522;2023-03-14T13:52:28;99928.80;;;9.80
68911;BMP180;55953;51.650;-0.522;2023-03-14T13:54:59;99935.80;;;9.48
68911;BMP180;55953;51.650;-0.522;2023-03-14T13:57:48;99937.20;;;9.30
68911;BMP180;55953;51.650;-0.522;2023-03-14T14:00:26;99933.20;;;9.04
68911;BMP180;55953;51.650;-0.522;2023-03-14T14:02:57;99940.40;;;9.00
68911;BMP180;55953;51.650;-0.522;2023-03-14T14:05:29;99939.00;;;9.14
68911;BMP180;55953;51.650;-0.522;2023-03-14T14:07:57;99941.80;;;9.30
68911;BMP180;55953;51.650;-0.522;2023-03-14T14:10:37;99942.00;;;9.46
68911;BMP180;55953;51.650;-0.522;2023-03-14T14:13:12;99939.60;;;9.60
68911;BMP180;55953;51.650;-0.522;2023-03-14T14:15:46;99943.20;;;9.78
68911;BMP180;55953;51.650;-0.522;2023-03-14T14:18:18;99950.00;;;10.00
68911;BMP180;55953;51.650;-0.522;2023-03-14T14:20:49;99944.80;;;10.20
68911;BMP180;55953;51.650;-0.522;2023-03-14T14:23:22;99958.80;;;10.02
68911;BMP180;55953;51.650;-0.522;2023-03-14T14:25:54;99956.80;;;9.96
68911;BMP180;55953;51.650;-0.522;2023-03-14T14:28:30;99953.60;;;9.90
68911;BMP180;55953;51.650;-0.522;2023-03-14T14:34:02;99965.20;;;9.90
68911;BMP180;55953;51.650;-0.522;2023-03-14T14:36:40;99969.20;;;9.90
68911;BMP180;55953;51.650;-0.522;2023-03-14T14:39:18;99971.80;;;9.90
68911;BMP180;55953;51.650;-0.522;2023-03-14T14:41:52;99972.80;;;9.80
68911;BMP180;55953;51.650;-0.522;2023-03-14T14:44:33;99972.60;;;9.80
68911;BMP180;55953;51.650;-0.522;2023-03-14T14:47:03;99978.20;;;9.90
68911;BMP180;55953;51.650;-0.522;2023-03-14T14:49:33;99976.40;;;10.00
68911;BMP180;55953;51.650;-0.522;2023-03-14T14:52:36;99972.20;;;10.10
68911;BMP180;55953;51.650;-0.522;2023-03-14T14:55:19;99971.60;;;10.40
68911;BMP180;55953;51.650;-0.522;2023-03-14T14:57:51;99974.00;;;10.56
68911;BMP180;55953;51.650;-0.522;2023-03-14T15:00:24;99975.00;;;10.50
68911;BMP180;55953;51.650;-0.522;2023-03-14T15:02:54;99978.60;;;10.50
68911;BMP180;55953;51.650;-0.522;2023-03-14T15:05:26;99973.00;;;10.54
68911;BMP180;55953;51.650;-0.522;2023-03-14T15:07:55;99976.20;;;10.50
68911;BMP180;55953;51.650;-0.522;2023-03-14T15:10:25;99990.80;;;10.50
68911;BMP180;55953;51.650;-0.522;2023-03-14T15:12:53;99991.40;;;10.28
68911;BMP180;55953;51.650;-0.522;2023-03-14T15:15:21;100001.20;;;10.04
68911;BMP180;55953;51.650;-0.522;2023-03-14T15:17:49;100003.80;;;10.00